Station History

Weather Underground - logo

Station Historical Data
Daily Summary for June 13, 2018 Units:  English    Metric   Both
« Previous Day
Next Day »
Daily Weekly Monthly Yearly Custom
  High: Low: Average:
Temperature: 102.2 °F 65.1 °F 85.1 °F
Dew Point: 66.5 °F 54.0 °F 60.2 °F
Humidity: 82 % 22 % 48 %
Wind Speed: 4.6 mph 0.0 mph 1 mph
Wind Gust: 2.7 mph - -
Wind:- - SW
Pressure: 29.75 in 29.61 in -
Precipitation: 0.00 in    
Historical Graphs
 
 
Tabular Data for June 13, 2018
Time Temperature Dew Point Pressure Wind Wind Speed Wind Gust Humidity Rainfall Rate (Hourly)
00:04 73.4 °F 63.4 °F 29.72 in Calm     71 % 0.00 in
00:09 73.0 °F 63.0 °F 29.72 in Calm     71 % 0.00 in
00:14 72.9 °F 62.9 °F 29.73 in Calm     71 % 0.00 in
00:19 72.7 °F 63.1 °F 29.72 in Calm     72 % 0.00 in
00:24 72.3 °F 63.5 °F 29.72 in Calm     74 % 0.00 in
00:29 71.8 °F 63.1 °F 29.72 in Calm     74 % 0.00 in
00:34 71.5 °F 63.2 °F 29.72 in Calm     75 % 0.00 in
00:39 71.3 °F 63.3 °F 29.72 in Calm     76 % 0.00 in
00:44 71.3 °F 64.1 °F 29.72 in Calm     78 % 0.00 in
00:49 71.4 °F 63.8 °F 29.72 in Calm     77 % 0.00 in
00:54 71.6 °F 64.0 °F 29.72 in Calm     77 % 0.00 in
00:59 71.7 °F 63.4 °F 29.72 in Calm     75 % 0.00 in
01:04 71.6 °F 63.3 °F 29.71 in Calm     75 % 0.00 in
01:09 71.6 °F 63.3 °F 29.71 in Calm     75 % 0.00 in
01:14 71.5 °F 63.5 °F 29.71 in Calm     76 % 0.00 in
01:19 71.4 °F 63.1 °F 29.71 in Calm     75 % 0.00 in
01:24 71.4 °F 63.8 °F 29.71 in Calm     77 % 0.00 in
01:29 71.2 °F 63.6 °F 29.71 in Calm     77 % 0.00 in
01:34 71.1 °F 63.5 °F 29.71 in Calm     77 % 0.00 in
01:39 71.0 °F 63.4 °F 29.71 in Calm     77 % 0.00 in
01:44 70.9 °F 63.7 °F 29.71 in Calm     78 % 0.00 in
01:49 70.7 °F 63.1 °F 29.71 in Calm     77 % 0.00 in
01:54 70.5 °F 62.9 °F 29.71 in Calm     77 % 0.00 in
01:59 70.2 °F 62.6 °F 29.71 in Calm     77 % 0.00 in
02:04 70.0 °F 62.8 °F 29.71 in Calm     78 % 0.00 in
02:09 69.8 °F 62.6 °F 29.71 in Calm     78 % 0.00 in
02:14 69.5 °F 62.3 °F 29.71 in Calm     78 % 0.00 in
02:19 69.2 °F 62.0 °F 29.71 in Calm     78 % 0.00 in
02:24 68.6 °F 62.5 °F 29.71 in Calm     81 % 0.00 in
02:29 68.2 °F 62.5 °F 29.71 in Calm     82 % 0.00 in
02:34 67.9 °F 61.9 °F 29.71 in Calm     81 % 0.00 in
02:39 67.8 °F 61.8 °F 29.71 in Calm     81 % 0.00 in
02:44 67.6 °F 61.6 °F 29.71 in Calm     81 % 0.00 in
02:49 67.7 °F 61.7 °F 29.71 in Calm     81 % 0.00 in
02:54 67.6 °F 61.2 °F 29.71 in Calm     80 % 0.00 in
02:59 67.6 °F 61.2 °F 29.71 in Calm     80 % 0.00 in
03:04 67.7 °F 61.0 °F 29.71 in Calm     79 % 0.00 in
03:09 67.8 °F 61.0 °F 29.71 in Calm     79 % 0.00 in
03:14 68.1 °F 61.0 °F 29.71 in Calm     78 % 0.00 in
03:19 68.1 °F 60.2 °F 29.71 in Calm     76 % 0.00 in
03:24 68.1 °F 59.9 °F 29.71 in Calm     75 % 0.00 in
03:29 68.3 °F 59.7 °F 29.71 in NE 1.2 mph   74 % 0.00 in
03:34 68.6 °F 59.6 °F 29.71 in Calm   0.1 mph 73 % 0.00 in
03:39 68.8 °F 59.8 °F 29.71 in Calm     73 % 0.00 in
03:44 68.8 °F 59.8 °F 29.71 in ESE 1.2 mph   73 % 0.00 in
03:49 68.9 °F 59.5 °F 29.71 in East 1.2 mph   72 % 0.00 in
03:54 68.9 °F 59.5 °F 29.71 in SE 1.2 mph   72 % 0.00 in
03:59 68.9 °F 59.1 °F 29.71 in East 1.2 mph   71 % 0.00 in
04:04 68.8 °F 59.0 °F 29.71 in East 1.2 mph   71 % 0.00 in
04:10 68.8 °F 59.0 °F 29.71 in Calm     71 % 0.00 in
04:14 68.6 °F 58.4 °F 29.71 in Calm     70 % 0.00 in
04:19 68.6 °F 58.8 °F 29.71 in Calm   0.1 mph 71 % 0.00 in
04:24 68.4 °F 58.2 °F 29.71 in Calm     70 % 0.00 in
04:29 68.1 °F 57.9 °F 29.71 in ESE 1.0 mph   70 % 0.00 in
04:34 68.2 °F 57.6 °F 29.71 in Calm     69 % 0.00 in
04:39 68.4 °F 57.8 °F 29.71 in Calm     69 % 0.00 in
04:44 68.7 °F 57.7 °F 29.71 in Calm     68 % 0.00 in
04:49 68.8 °F 57.4 °F 29.71 in Calm     67 % 0.00 in
04:54 69.0 °F 57.6 °F 29.71 in Calm     67 % 0.00 in
04:59 68.5 °F 58.7 °F 29.71 in Calm     71 % 0.00 in
05:04 67.7 °F 58.7 °F 29.71 in Calm     73 % 0.00 in
05:09 67.1 °F 58.5 °F 29.71 in Calm     74 % 0.00 in
05:14 66.6 °F 58.8 °F 29.71 in Calm     76 % 0.00 in
05:19 66.2 °F 58.8 °F 29.71 in Calm     77 % 0.00 in
05:24 65.8 °F 59.1 °F 29.71 in Calm     79 % 0.00 in
05:29 65.6 °F 60.0 °F 29.71 in Calm     82 % 0.00 in
05:34 65.3 °F 59.0 °F 29.71 in Calm     80 % 0.00 in
05:39 65.1 °F 58.4 °F 29.72 in Calm     79 % 0.00 in
05:44 65.2 °F 58.9 °F 29.72 in Calm     80 % 0.00 in
05:49 65.2 °F 58.5 °F 29.72 in Calm     79 % 0.00 in
05:54 65.3 °F 58.6 °F 29.72 in Calm     79 % 0.00 in
05:59 65.4 °F 59.4 °F 29.72 in Calm     81 % 0.00 in
06:04 65.2 °F 58.5 °F 29.72 in Calm     79 % 0.00 in
06:09 65.4 °F 59.1 °F 29.72 in Calm     80 % 0.00 in
06:14 65.6 °F 59.3 °F 29.72 in Calm     80 % 0.00 in
06:20 65.6 °F 58.9 °F 29.73 in Calm     79 % 0.00 in
06:24 65.8 °F 58.0 °F 29.73 in Calm     76 % 0.00 in
06:29 66.8 °F 57.9 °F 29.73 in Calm     73 % 0.00 in
06:34 67.7 °F 58.3 °F 29.73 in ESE 1.2 mph   72 % 0.00 in
06:39 68.6 °F 58.4 °F 29.73 in Calm     70 % 0.00 in
06:44 69.9 °F 58.4 °F 29.73 in Calm     67 % 0.00 in
06:49 71.2 °F 58.8 °F 29.73 in Calm     65 % 0.00 in
06:54 72.3 °F 58.1 °F 29.73 in Calm     61 % 0.00 in
06:59 73.3 °F 58.6 °F 29.73 in Calm     60 % 0.00 in
07:04 74.5 °F 59.7 °F 29.74 in Calm     60 % 0.00 in
07:09 74.9 °F 59.6 °F 29.74 in Calm     59 % 0.00 in
07:14 75.5 °F 59.7 °F 29.74 in Calm     58 % 0.00 in
07:19 75.8 °F 59.0 °F 29.74 in Calm   0.1 mph 56 % 0.00 in
07:24 76.3 °F 59.4 °F 29.74 in Calm     56 % 0.00 in
07:29 77.2 °F 60.3 °F 29.74 in Calm     56 % 0.00 in
07:34 78.7 °F 61.2 °F 29.74 in Calm     55 % 0.00 in
07:39 79.7 °F 61.1 °F 29.74 in Calm     53 % 0.00 in
07:44 80.8 °F 61.0 °F 29.74 in SE 1.2 mph   51 % 0.00 in
07:49 81.7 °F 60.7 °F 29.74 in Calm     49 % 0.00 in
07:54 82.3 °F 60.6 °F 29.74 in Calm     48 % 0.00 in
07:59 82.3 °F 59.4 °F 29.74 in SE 1.2 mph 0.3 mph 46 % 0.00 in
08:04 82.7 °F 59.8 °F 29.74 in ESE 1.2 mph 0.2 mph 46 % 0.00 in
08:09 83.0 °F 60.7 °F 29.75 in North 1.0 mph   47 % 0.00 in
08:14 83.1 °F 61.4 °F 29.75 in East 1.2 mph 0.1 mph 48 % 0.00 in
08:19 83.2 °F 60.9 °F 29.75 in South 1.2 mph 0.2 mph 47 % 0.00 in
08:24 83.5 °F 61.1 °F 29.75 in Calm     47 % 0.00 in
08:29 83.9 °F 60.3 °F 29.75 in Calm   0.3 mph 45 % 0.00 in
08:34 83.8 °F 60.2 °F 29.75 in ESE 2.3 mph 0.5 mph 45 % 0.00 in
08:39 83.9 °F 60.3 °F 29.75 in South 2.3 mph 1.5 mph 45 % 0.00 in
08:44 83.9 °F 60.9 °F 29.75 in SW 1.2 mph   46 % 0.00 in
08:49 84.4 °F 61.4 °F 29.75 in SSW 1.2 mph 0.5 mph 46 % 0.00 in
08:54 84.8 °F 61.1 °F 29.75 in SE 1.2 mph   45 % 0.00 in
08:59 85.3 °F 60.9 °F 29.75 in ESE 2.3 mph 0.3 mph 44 % 0.00 in
09:04 85.7 °F 61.3 °F 29.75 in South 2.0 mph 0.1 mph 44 % 0.00 in
09:09 86.1 °F 61.0 °F 29.75 in South 2.3 mph 0.6 mph 43 % 0.00 in
09:14 86.3 °F 60.5 °F 29.74 in ESE 1.2 mph 0.5 mph 42 % 0.00 in
09:19 86.7 °F 61.5 °F 29.74 in South 1.2 mph 0.3 mph 43 % 0.00 in
09:24 86.9 °F 61.0 °F 29.74 in ESE 4.0 mph 1.1 mph 42 % 0.00 in
09:29 87.0 °F 61.8 °F 29.74 in NE 2.3 mph 1.0 mph 43 % 0.00 in
09:34 87.3 °F 61.4 °F 29.74 in SW 1.2 mph 0.1 mph 42 % 0.00 in
09:39 87.7 °F 61.8 °F 29.74 in South 1.2 mph 0.2 mph 42 % 0.00 in
09:44 88.2 °F 60.8 °F 29.74 in ESE 3.0 mph 2.0 mph 40 % 0.00 in
09:49 87.9 °F 61.9 °F 29.74 in SE 3.5 mph 0.8 mph 42 % 0.00 in
09:54 88.3 °F 62.3 °F 29.74 in South 1.2 mph 1.4 mph 42 % 0.00 in
09:59 88.8 °F 61.4 °F 29.73 in SSW 2.3 mph 0.4 mph 40 % 0.00 in
10:04 89.1 °F 62.3 °F 29.73 in ESE 3.5 mph 0.2 mph 41 % 0.00 in
10:09 89.3 °F 61.8 °F 29.73 in SSW 1.2 mph 0.9 mph 40 % 0.00 in
10:14 89.5 °F 59.8 °F 29.73 in SSW 3.5 mph 0.9 mph 37 % 0.00 in
10:19 89.7 °F 60.0 °F 29.73 in SE 3.0 mph 2.4 mph 37 % 0.00 in
10:24 90.1 °F 61.8 °F 29.73 in SW 2.3 mph 0.5 mph 39 % 0.00 in
10:29 90.6 °F 60.0 °F 29.73 in South 4.6 mph 0.9 mph 36 % 0.00 in
10:34 90.8 °F 61.7 °F 29.73 in Calm   0.2 mph 38 % 0.00 in
10:39 91.2 °F 59.7 °F 29.73 in North 2.0 mph 1.7 mph 35 % 0.00 in
10:44 91.3 °F 59.8 °F 29.73 in NNW 2.3 mph 1.0 mph 35 % 0.00 in
10:49 91.6 °F 59.3 °F 29.73 in NW 2.3 mph 1.0 mph 34 % 0.00 in
10:54 91.9 °F 61.1 °F 29.73 in West 2.0 mph 0.7 mph 36 % 0.00 in
10:59 92.4 °F 61.6 °F 29.73 in WNW 2.3 mph 0.3 mph 36 % 0.00 in
11:04 93.1 °F 61.4 °F 29.73 in South 1.2 mph   35 % 0.00 in
11:09 93.4 °F 60.0 °F 29.73 in ENE 2.0 mph 1.7 mph 33 % 0.00 in
11:15 93.1 °F 61.4 °F 29.73 in North 2.3 mph 0.8 mph 35 % 0.00 in
11:19 93.5 °F 61.7 °F 29.73 in North 1.2 mph 0.7 mph 35 % 0.00 in
11:24 93.2 °F 62.3 °F 29.73 in WSW 1.2 mph 1.0 mph 36 % 0.00 in
11:29 93.6 °F 62.6 °F 29.73 in NW 2.3 mph 0.7 mph 36 % 0.00 in
11:34 93.4 °F 60.8 °F 29.73 in NNW 3.5 mph 0.9 mph 34 % 0.00 in
11:40 93.6 °F 61.0 °F 29.73 in WNW 1.2 mph 0.4 mph 34 % 0.00 in
11:44 94.1 °F 62.3 °F 29.73 in NW 1.0 mph 1.2 mph 35 % 0.00 in
11:49 94.1 °F 61.4 °F 29.73 in NW 3.5 mph 0.8 mph 34 % 0.00 in
11:54 94.0 °F 61.4 °F 29.73 in NNW 1.2 mph 1.2 mph 34 % 0.00 in
11:59 94.1 °F 60.6 °F 29.73 in WNW 2.3 mph 0.7 mph 33 % 0.00 in
12:04 94.5 °F 59.2 °F 29.73 in NNW 2.3 mph 1.1 mph 31 % 0.00 in
12:09 94.5 °F 58.3 °F 29.73 in WNW 2.3 mph 0.9 mph 30 % 0.00 in
12:14 95.0 °F 59.6 °F 29.73 in NNW 2.3 mph 0.4 mph 31 % 0.00 in
12:19 95.5 °F 59.1 °F 29.72 in NNE 2.3 mph 0.7 mph 30 % 0.00 in
12:24 95.6 °F 57.3 °F 29.72 in WNW 2.3 mph 1.0 mph 28 % 0.00 in
12:29 95.9 °F 58.5 °F 29.72 in NNE 3.5 mph 0.5 mph 29 % 0.00 in
12:34 96.7 °F 59.2 °F 29.72 in North 3.5 mph 0.6 mph 29 % 0.00 in
12:39 97.4 °F 62.6 °F 29.72 in NE 1.2 mph 0.4 mph 32 % 0.00 in
12:44 97.9 °F 59.3 °F 29.72 in ENE 2.3 mph 0.2 mph 28 % 0.00 in
12:49 97.8 °F 60.2 °F 29.72 in NW 2.0 mph 1.1 mph 29 % 0.00 in
12:54 97.8 °F 57.1 °F 29.72 in NW 2.3 mph 0.4 mph 26 % 0.00 in
12:59 97.3 °F 54.5 °F 29.72 in WNW 2.3 mph 1.0 mph 24 % 0.00 in
13:04 97.5 °F 58.9 °F 29.72 in WNW 1.2 mph   28 % 0.00 in
13:09 98.1 °F 56.3 °F 29.71 in NNW 2.3 mph 0.7 mph 25 % 0.00 in
13:14 98.1 °F 54.0 °F 29.71 in North 3.5 mph 1.2 mph 23 % 0.00 in
13:19 98.2 °F 58.5 °F 29.71 in WNW 2.3 mph 1.0 mph 27 % 0.00 in
13:24 97.9 °F 56.1 °F 29.71 in NW 2.3 mph 1.2 mph 25 % 0.00 in
13:29 98.1 °F 57.4 °F 29.71 in East 2.3 mph 0.4 mph 26 % 0.00 in
13:34 98.0 °F 57.3 °F 29.71 in NW 2.0 mph 2.3 mph 26 % 0.00 in
13:39 98.5 °F 58.8 °F 29.71 in NW 1.2 mph 0.7 mph 27 % 0.00 in
13:44 98.9 °F 60.1 °F 29.70 in West 1.0 mph 0.8 mph 28 % 0.00 in
13:49 98.8 °F 60.0 °F 29.70 in NW 2.3 mph   28 % 0.00 in
13:54 98.9 °F 59.1 °F 29.70 in North 2.0 mph 0.9 mph 27 % 0.00 in
13:59 99.2 °F 59.3 °F 29.70 in NW 1.2 mph 0.5 mph 27 % 0.00 in
14:04 99.5 °F 58.5 °F 29.70 in ENE 1.2 mph   26 % 0.00 in
14:09 99.5 °F 58.5 °F 29.70 in ESE 2.3 mph 0.7 mph 26 % 0.00 in
14:14 99.4 °F 56.2 °F 29.70 in WNW 2.3 mph 1.3 mph 24 % 0.00 in
14:19 99.9 °F 59.9 °F 29.69 in SSE 1.2 mph 0.5 mph 27 % 0.00 in
14:24 100.3 °F 60.3 °F 29.69 in Calm   0.6 mph 27 % 0.00 in
14:30 100.8 °F 58.5 °F 29.69 in SE 1.2 mph 0.3 mph 25 % 0.00 in
14:34 101.2 °F 61.0 °F 29.69 in WNW 1.2 mph 0.9 mph 27 % 0.00 in
14:39 101.5 °F 59.1 °F 29.69 in South 3.5 mph 1.0 mph 25 % 0.00 in
14:44 101.4 °F 57.9 °F 29.69 in NNW 3.5 mph 2.3 mph 24 % 0.00 in
14:49 101.5 °F 61.3 °F 29.68 in East 1.2 mph 0.8 mph 27 % 0.00 in
14:54 101.5 °F 59.1 °F 29.68 in WNW 1.2 mph 0.4 mph 25 % 0.00 in
14:59 101.6 °F 58.1 °F 29.68 in SSW 2.3 mph   24 % 0.00 in
15:04 102.1 °F 59.6 °F 29.68 in ENE 1.2 mph 1.0 mph 25 % 0.00 in
15:09 102.2 °F 59.7 °F 29.68 in NW 2.3 mph 0.6 mph 25 % 0.00 in
15:14 102.0 °F 60.7 °F 29.68 in ENE 1.2 mph 0.1 mph 26 % 0.00 in
15:19 101.9 °F 58.3 °F 29.68 in NW 2.3 mph 0.5 mph 24 % 0.00 in
15:24 102.0 °F 58.4 °F 29.68 in North 3.5 mph 0.7 mph 24 % 0.00 in
15:29 101.8 °F 57.1 °F 29.67 in NW 2.3 mph 1.2 mph 23 % 0.00 in
15:34 101.5 °F 58.0 °F 29.67 in NW 2.3 mph 1.4 mph 24 % 0.00 in
15:39 101.2 °F 57.7 °F 29.67 in NW 3.5 mph 1.5 mph 24 % 0.00 in
15:44 101.1 °F 56.5 °F 29.67 in WNW 2.3 mph 1.9 mph 23 % 0.00 in
15:49 101.0 °F 55.2 °F 29.67 in NW 2.3 mph 0.6 mph 22 % 0.00 in
15:54 101.0 °F 57.6 °F 29.67 in North 3.5 mph 1.4 mph 24 % 0.00 in
15:59 101.2 °F 56.6 °F 29.66 in NNW 3.5 mph 1.8 mph 23 % 0.00 in
16:04 101.2 °F 56.6 °F 29.66 in WNW 2.3 mph 0.9 mph 23 % 0.00 in
16:09 101.7 °F 57.0 °F 29.66 in WNW 2.0 mph 0.7 mph 23 % 0.00 in
16:14 101.6 °F 56.9 °F 29.66 in NNW 3.5 mph 2.5 mph 23 % 0.00 in
16:19 101.0 °F 56.4 °F 29.66 in NW 3.5 mph 1.9 mph 23 % 0.00 in
16:24 101.1 °F 57.7 °F 29.66 in WNW 3.5 mph 1.1 mph 24 % 0.00 in
16:29 101.2 °F 57.7 °F 29.66 in NW 1.2 mph 0.2 mph 24 % 0.00 in
16:34 101.1 °F 56.5 °F 29.66 in NW 3.5 mph 2.7 mph 23 % 0.00 in
16:39 101.0 °F 58.7 °F 29.65 in WNW 2.3 mph 1.1 mph 25 % 0.00 in
16:44 101.0 °F 56.4 °F 29.65 in NW 3.5 mph 2.1 mph 23 % 0.00 in
16:49 100.7 °F 57.3 °F 29.65 in NE 3.5 mph 1.1 mph 24 % 0.00 in
16:54 100.9 °F 57.5 °F 29.65 in NW 1.2 mph 0.3 mph 24 % 0.00 in
16:59 101.1 °F 56.5 °F 29.64 in NW 3.5 mph 2.1 mph 23 % 0.00 in
17:04 101.2 °F 57.7 °F 29.64 in NW 2.3 mph 1.7 mph 24 % 0.00 in
17:09 101.2 °F 55.3 °F 29.64 in NW 2.3 mph 1.0 mph 22 % 0.00 in
17:15 101.2 °F 57.7 °F 29.64 in WNW 2.3 mph 1.3 mph 24 % 0.00 in
17:19 101.0 °F 55.2 °F 29.64 in WNW 3.5 mph 1.7 mph 22 % 0.00 in
17:24 100.8 °F 55.0 °F 29.64 in WSW 4.6 mph 1.6 mph 22 % 0.00 in
17:29 100.7 °F 54.9 °F 29.63 in WNW 2.0 mph 1.1 mph 22 % 0.00 in
17:34 100.9 °F 55.1 °F 29.63 in WNW 2.3 mph 1.1 mph 22 % 0.00 in
17:40 100.8 °F 55.0 °F 29.63 in WNW 3.5 mph 1.8 mph 22 % 0.00 in
17:44 100.8 °F 55.0 °F 29.63 in WNW 2.3 mph 0.1 mph 22 % 0.00 in
17:49 100.8 °F 56.2 °F 29.63 in NW 3.5 mph 1.7 mph 23 % 0.00 in
17:54 100.7 °F 56.1 °F 29.62 in WNW 3.5 mph 1.9 mph 23 % 0.00 in
17:59 100.7 °F 54.9 °F 29.62 in NW 3.5 mph 1.2 mph 22 % 0.00 in
18:04 100.8 °F 55.0 °F 29.62 in NNW 2.3 mph 0.9 mph 22 % 0.00 in
18:10 100.9 °F 57.5 °F 29.62 in NW 2.3 mph 0.8 mph 24 % 0.00 in
18:14 101.0 °F 58.7 °F 29.62 in NW 2.3 mph 0.4 mph 25 % 0.00 in
18:19 100.8 °F 58.5 °F 29.62 in NW 2.3 mph 1.2 mph 25 % 0.00 in
18:24 100.6 °F 57.2 °F 29.62 in NNW 1.2 mph 0.6 mph 24 % 0.00 in
18:29 100.9 °F 58.6 °F 29.62 in NW 1.0 mph 0.1 mph 25 % 0.00 in
18:34 100.8 °F 58.5 °F 29.62 in NW 2.3 mph 0.6 mph 25 % 0.00 in
18:40 100.4 °F 57.1 °F 29.62 in NW 1.2 mph 0.2 mph 24 % 0.00 in
18:44 100.4 °F 59.3 °F 29.62 in WNW 1.0 mph 0.1 mph 26 % 0.00 in
18:49 100.3 °F 59.2 °F 29.62 in Calm     26 % 0.00 in
18:54 99.7 °F 58.7 °F 29.62 in Calm     26 % 0.00 in
18:59 98.8 °F 59.0 °F 29.62 in Calm     27 % 0.00 in
19:04 98.3 °F 60.6 °F 29.62 in Calm     29 % 0.00 in
19:09 98.2 °F 59.5 °F 29.62 in WSW 1.2 mph   28 % 0.00 in
19:14 98.4 °F 58.7 °F 29.62 in Calm     27 % 0.00 in
19:19 97.8 °F 59.2 °F 29.62 in Calm     28 % 0.00 in
19:24 96.9 °F 58.4 °F 29.62 in Calm     28 % 0.00 in
19:29 96.1 °F 57.7 °F 29.62 in Calm     28 % 0.00 in
19:34 95.5 °F 57.2 °F 29.61 in Calm     28 % 0.00 in
19:39 95.0 °F 58.7 °F 29.61 in Calm     30 % 0.00 in
19:44 94.2 °F 59.8 °F 29.62 in Calm     32 % 0.00 in
19:49 93.4 °F 59.1 °F 29.62 in Calm     32 % 0.00 in
19:54 92.6 °F 61.0 °F 29.62 in Calm     35 % 0.00 in
19:59 91.8 °F 60.3 °F 29.62 in Calm     35 % 0.00 in
20:04 91.1 °F 60.4 °F 29.62 in Calm     36 % 0.00 in
20:09 90.3 °F 61.2 °F 29.62 in Calm     38 % 0.00 in
20:14 89.5 °F 64.0 °F 29.62 in Calm     43 % 0.00 in
20:19 88.7 °F 64.6 °F 29.62 in Calm     45 % 0.00 in
20:24 88.0 °F 64.0 °F 29.62 in Calm     45 % 0.00 in
20:30 87.5 °F 64.2 °F 29.62 in Calm     46 % 0.00 in
20:34 87.1 °F 65.0 °F 29.62 in Calm     48 % 0.00 in
20:39 86.4 °F 65.6 °F 29.62 in Calm     50 % 0.00 in
20:44 85.7 °F 66.0 °F 29.62 in Calm     52 % 0.00 in
20:49 85.0 °F 66.0 °F 29.62 in Calm     53 % 0.00 in
20:54 84.4 °F 66.5 °F 29.62 in Calm     55 % 0.00 in
20:59 83.9 °F 66.0 °F 29.62 in Calm     55 % 0.00 in
21:04 83.5 °F 65.6 °F 29.62 in Calm     55 % 0.00 in
21:09 83.1 °F 65.8 °F 29.63 in Calm     56 % 0.00 in
21:14 82.7 °F 64.9 °F 29.63 in Calm     55 % 0.00 in
21:19 82.6 °F 64.3 °F 29.63 in Calm     54 % 0.00 in
21:24 82.5 °F 63.6 °F 29.64 in Calm     53 % 0.00 in
21:30 82.3 °F 65.0 °F 29.64 in Calm     56 % 0.00 in
21:35 81.9 °F 65.7 °F 29.64 in Calm     58 % 0.00 in
21:39 81.5 °F 64.3 °F 29.64 in Calm     56 % 0.00 in
21:45 81.6 °F 62.3 °F 29.65 in Calm     52 % 0.00 in
21:49 82.4 °F 62.5 °F 29.65 in Calm     51 % 0.00 in
21:54 82.7 °F 62.2 °F 29.65 in Calm     50 % 0.00 in
21:59 82.9 °F 61.8 °F 29.65 in Calm     49 % 0.00 in
22:04 82.8 °F 62.3 °F 29.65 in Calm     50 % 0.00 in
22:09 82.6 °F 62.6 °F 29.65 in Calm     51 % 0.00 in
22:14 82.1 °F 63.3 °F 29.65 in Calm     53 % 0.00 in
22:19 81.4 °F 63.2 °F 29.65 in Calm     54 % 0.00 in
22:24 80.8 °F 63.1 °F 29.65 in Calm     55 % 0.00 in
22:29 80.3 °F 62.7 °F 29.65 in Calm   0.1 mph 55 % 0.00 in
22:34 80.4 °F 61.7 °F 29.65 in WSW 1.2 mph   53 % 0.00 in
22:39 80.6 °F 61.9 °F 29.65 in Calm     53 % 0.00 in
22:45 80.4 °F 62.2 °F 29.65 in Calm     54 % 0.00 in
22:49 80.2 °F 61.5 °F 29.65 in Calm   0.1 mph 53 % 0.00 in
22:54 80.6 °F 60.8 °F 29.65 in Calm     51 % 0.00 in
22:59 81.1 °F 60.7 °F 29.65 in WSW 1.2 mph   50 % 0.00 in
23:04 81.2 °F 60.2 °F 29.65 in Calm     49 % 0.00 in
23:09 81.3 °F 60.3 °F 29.65 in WSW 1.2 mph   49 % 0.00 in
23:14 80.9 °F 61.6 °F 29.65 in Calm     52 % 0.00 in
23:19 80.3 °F 61.6 °F 29.65 in Calm     53 % 0.00 in
23:24 79.9 °F 60.7 °F 29.65 in WSW 1.2 mph   52 % 0.00 in
23:29 79.9 °F 61.2 °F 29.65 in WSW 1.2 mph   53 % 0.00 in
23:34 79.8 °F 60.6 °F 29.65 in Calm     52 % 0.00 in
23:39 79.9 °F 60.2 °F 29.65 in West 1.2 mph   51 % 0.00 in
23:44 79.8 °F 60.6 °F 29.65 in West 1.2 mph   52 % 0.00 in
23:49 79.1 °F 63.1 °F 29.65 in Calm     58 % 0.00 in
23:54 77.9 °F 62.4 °F 29.65 in Calm     59 % 0.00 in
23:59 76.8 °F 61.9 °F 29.65 in Calm     60 % 0.00 in
Park Place, Exeter, Tulare County, California, USA
Compliments of Weather Underground - 2.75 mb